createdAt,value
2019-06-26T00:01:30.238Z,1.40
2019-06-26T00:05:50.633Z,1.23
2019-06-26T00:10:11.862Z,1.50
2019-06-26T00:14:32.785Z,1.30
2019-06-26T00:18:53.294Z,1.30
2019-06-26T00:23:13.665Z,1.50
2019-06-26T00:27:34.691Z,1.60
2019-06-26T00:31:55.296Z,1.73
2019-06-26T00:36:16.268Z,1.50
2019-06-26T00:40:37.806Z,1.40
2019-06-26T00:44:58.601Z,1.47
2019-06-26T00:49:20.179Z,1.47
2019-06-26T00:53:41.361Z,1.87
2019-06-26T00:58:01.622Z,1.87
2019-06-26T01:02:22.672Z,1.43
2019-06-26T01:06:46.934Z,2.03
2019-06-26T01:11:08.001Z,1.90
2019-06-26T01:15:28.866Z,1.50
2019-06-26T01:19:49.853Z,1.90
2019-06-26T01:24:09.996Z,2.10
2019-06-26T01:28:30.652Z,1.70
2019-06-26T01:32:53.118Z,1.83
2019-06-26T01:37:14.135Z,1.60
2019-06-26T01:41:34.600Z,1.80
2019-06-26T01:45:55.453Z,1.60
2019-06-26T01:50:16.933Z,1.90
2019-06-26T01:54:37.703Z,1.70
2019-06-26T01:58:59.059Z,1.97
2019-06-26T02:03:19.854Z,1.73
2019-06-26T02:07:41.122Z,2.50
2019-06-26T02:12:01.466Z,1.80
2019-06-26T02:16:21.752Z,1.50
2019-06-26T02:20:42.692Z,1.50
2019-06-26T02:25:03.739Z,1.63
2019-06-26T02:29:24.342Z,1.80
2019-06-26T02:33:45.406Z,2.00
2019-06-26T02:38:05.365Z,1.70
2019-06-26T02:42:26.207Z,1.53
2019-06-26T02:46:47.002Z,2.20
2019-06-26T02:51:07.339Z,2.20
2019-06-26T02:55:28.091Z,1.90
2019-06-26T02:59:49.269Z,1.70
2019-06-26T03:04:10.429Z,1.73
2019-06-26T03:08:31.717Z,1.70
2019-06-26T03:12:52.283Z,1.80
2019-06-26T03:17:13.436Z,1.03
2019-06-26T03:21:33.823Z,1.30
2019-06-26T03:25:54.045Z,1.53
2019-06-26T03:30:14.664Z,1.57
2019-06-26T03:34:35.451Z,1.30
2019-06-26T03:38:56.162Z,1.50
2019-06-26T03:43:16.900Z,1.10
2019-06-26T03:47:37.775Z,1.10
2019-06-26T03:51:58.977Z,1.50
2019-06-26T03:56:19.516Z,1.40
2019-06-26T04:00:41.794Z,1.37
2019-06-26T04:05:02.289Z,1.90
2019-06-26T04:09:22.719Z,1.57
2019-06-26T04:13:43.056Z,1.40
2019-06-26T04:18:04.146Z,1.80
2019-06-26T04:22:24.918Z,1.60
2019-06-26T04:26:45.573Z,1.37
2019-06-26T04:31:06.690Z,0.93
2019-06-26T04:35:27.955Z,1.23
2019-06-26T04:39:48.932Z,1.20
2019-06-26T04:44:10.074Z,1.00
2019-06-26T04:48:30.466Z,1.40
2019-06-26T04:52:50.688Z,1.00
2019-06-26T04:57:11.146Z,0.97
2019-06-26T05:01:32.333Z,1.00
2019-06-26T05:05:52.478Z,1.00
2019-06-26T05:10:15.477Z,1.03
2019-06-26T05:14:35.748Z,1.30
2019-06-26T05:18:56.407Z,1.23
2019-06-26T05:23:17.125Z,1.10
2019-06-26T05:27:37.688Z,1.33
2019-06-26T05:31:58.512Z,0.87
2019-06-26T05:36:19.138Z,0.83
2019-06-26T05:40:40.012Z,1.17
2019-06-26T05:45:00.728Z,0.80
2019-06-26T05:49:21.297Z,1.00
2019-06-26T05:53:42.530Z,1.00
2019-06-26T05:58:03.318Z,0.80
2019-06-26T06:02:23.678Z,0.80
2019-06-26T06:06:44.187Z,0.90
2019-06-26T06:11:04.689Z,1.30
2019-06-26T06:15:28.962Z,0.90
2019-06-26T06:19:49.601Z,0.80
2019-06-26T06:24:11.409Z,0.80
2019-06-26T06:28:31.452Z,0.80
2019-06-26T06:32:51.670Z,0.97
2019-06-26T06:37:11.933Z,0.87
2019-06-26T06:41:32.745Z,0.77
2019-06-26T06:45:53.426Z,0.70
2019-06-26T06:50:14.610Z,0.70
2019-06-26T06:54:35.093Z,0.80
2019-06-26T06:58:56.450Z,0.93
2019-06-26T07:03:17.629Z,0.60
2019-06-26T07:07:38.528Z,0.70
2019-06-26T07:11:59.519Z,1.00
2019-06-26T07:16:20.450Z,0.70
2019-06-26T07:20:44.565Z,0.70
2019-06-26T07:25:04.014Z,0.80
2019-06-26T07:29:26.581Z,0.70
2019-06-26T07:33:47.153Z,0.80
2019-06-26T07:38:08.471Z,0.77
2019-06-26T07:42:29.026Z,0.80
2019-06-26T07:46:49.513Z,0.70
2019-06-26T07:51:10.211Z,0.53
2019-06-26T07:55:32.796Z,0.60
2019-06-26T07:59:53.576Z,0.60
2019-06-26T08:04:14.443Z,0.60
2019-06-26T08:08:37.870Z,1.00
2019-06-26T08:12:58.427Z,0.80
2019-06-26T08:17:19.201Z,0.70
2019-06-26T08:21:39.886Z,0.70
2019-06-26T08:26:03.341Z,0.90
2019-06-26T08:30:25.122Z,0.60
2019-06-26T08:34:46.209Z,0.73
2019-06-26T08:39:07.799Z,0.73
2019-06-26T08:43:31.221Z,0.67
2019-06-26T08:47:50.965Z,0.97
2019-06-26T08:52:11.542Z,0.60
2019-06-26T08:56:33.282Z,0.50
2019-06-26T09:00:53.733Z,0.57
2019-06-26T09:05:13.890Z,0.60
2019-06-26T09:09:34.223Z,0.70
2019-06-26T09:13:55.477Z,0.67
2019-06-26T09:18:31.059Z,0.50
2019-06-26T09:22:38.418Z,0.60
2019-06-26T09:26:58.751Z,1.00
2019-06-26T09:31:19.443Z,0.53
2019-06-26T09:35:40.190Z,0.73
2019-06-26T09:40:00.891Z,0.50
2019-06-26T09:44:20.685Z,0.70
2019-06-26T09:48:52.210Z,0.57
2019-06-26T09:53:05.407Z,0.60
2019-06-26T09:57:24.740Z,0.50
2019-06-26T10:01:45.922Z,0.50
2019-06-26T10:06:07.233Z,0.70
2019-06-26T10:10:28.447Z,0.60
2019-06-26T10:14:49.408Z,0.70
2019-06-26T10:19:11.090Z,0.67
2019-06-26T10:23:32.196Z,0.70
2019-06-26T10:27:52.616Z,0.53
2019-06-26T10:32:13.765Z,0.60
2019-06-26T10:36:36.127Z,0.70
2019-06-26T10:40:57.172Z,0.53
2019-06-26T10:45:18.020Z,0.50
2019-06-26T10:49:38.241Z,0.67
2019-06-26T10:53:59.380Z,0.57
2019-06-26T10:58:20.220Z,0.67
2019-06-26T11:02:41.118Z,0.70
2019-06-26T11:07:01.751Z,0.70
2019-06-26T11:11:21.928Z,0.70
2019-06-26T11:15:42.511Z,0.60
2019-06-26T11:20:03.321Z,0.67
2019-06-26T11:24:23.209Z,0.60
2019-06-26T11:28:44.031Z,0.60
2019-06-26T11:33:04.436Z,0.60
2019-06-26T11:37:25.235Z,0.60
2019-06-26T11:41:46.653Z,0.80
2019-06-26T11:46:07.428Z,0.60
2019-06-26T11:50:28.579Z,0.60
2019-06-26T11:55:01.972Z,0.60
2019-06-26T11:59:11.567Z,0.70
2019-06-26T12:03:32.244Z,0.60
2019-06-26T12:07:53.267Z,0.90
2019-06-26T12:12:15.058Z,0.50
2019-06-26T12:16:35.745Z,0.77
2019-06-26T12:20:59.355Z,0.60
2019-06-26T12:25:20.994Z,0.40
2019-06-26T12:29:42.034Z,0.90
2019-06-26T12:34:03.250Z,0.60
2019-06-26T12:38:24.794Z,0.80
2019-06-26T12:42:45.799Z,0.70
2019-06-26T12:47:06.446Z,0.60
2019-06-26T12:51:27.509Z,0.60
2019-06-26T12:55:48.066Z,0.80
2019-06-26T13:00:09.429Z,0.60
2019-06-26T13:04:29.232Z,0.40
2019-06-26T13:08:50.240Z,0.53
2019-06-26T13:13:10.704Z,0.60
2019-06-26T13:17:30.816Z,0.47
2019-06-26T13:21:51.278Z,0.70
2019-06-26T13:26:12.510Z,0.60
2019-06-26T13:30:38.898Z,0.60
2019-06-26T13:34:59.941Z,0.50
2019-06-26T13:39:20.536Z,0.60
2019-06-26T13:43:41.223Z,0.70
2019-06-26T13:48:02.500Z,0.77
2019-06-26T13:52:24.673Z,0.60
2019-06-26T13:56:45.435Z,0.40
2019-06-26T14:01:06.641Z,0.50
2019-06-26T14:05:29.577Z,0.40
2019-06-26T14:09:49.602Z,0.30
2019-06-26T14:14:09.775Z,0.40
2019-06-26T14:18:30.673Z,0.53
2019-06-26T14:22:51.565Z,0.53
2019-06-26T14:27:12.625Z,0.50
2019-06-26T14:31:33.623Z,0.80
2019-06-26T14:35:54.664Z,0.50
2019-06-26T14:40:18.193Z,0.60
2019-06-26T14:44:41.321Z,0.57
2019-06-26T14:49:04.224Z,0.60
2019-06-26T14:53:25.084Z,0.80
2019-06-26T14:57:45.663Z,0.50
2019-06-26T15:02:07.083Z,0.70
2019-06-26T15:06:28.140Z,0.80
2019-06-26T15:10:48.401Z,0.90
2019-06-26T15:15:09.339Z,1.10
2019-06-26T15:19:29.753Z,1.10
2019-06-26T15:23:50.309Z,0.93
2019-06-26T15:28:11.415Z,1.30
2019-06-26T15:32:32.903Z,1.27
2019-06-26T15:36:53.737Z,1.40
2019-06-26T15:41:13.833Z,1.63
2019-06-26T15:45:34.899Z,1.00
2019-06-26T15:49:55.785Z,1.40
2019-06-26T15:54:17.508Z,1.40
2019-06-26T15:58:37.500Z,1.30
2019-06-26T16:02:58.472Z,1.60
2019-06-26T16:07:19.143Z,1.40
2019-06-26T16:11:39.798Z,1.30
2019-06-26T16:16:00.678Z,1.40
2019-06-26T16:20:21.057Z,1.50
2019-06-26T16:24:41.666Z,1.60
2019-06-26T16:29:02.754Z,1.80
2019-06-26T16:33:24.115Z,1.50
2019-06-26T16:37:45.005Z,1.57
2019-06-26T16:42:06.133Z,1.80
2019-06-26T16:46:26.653Z,1.60
2019-06-26T16:50:47.449Z,2.00
2019-06-26T16:55:08.212Z,2.47
2019-06-26T16:59:28.676Z,2.20
2019-06-26T17:03:49.417Z,1.83
2019-06-26T17:08:09.519Z,1.70
2019-06-26T17:12:30.604Z,2.00
2019-06-26T17:16:51.761Z,2.00
2019-06-26T17:21:11.947Z,1.77
2019-06-26T17:25:34.932Z,1.73
2019-06-26T17:29:54.963Z,2.00
2019-06-26T17:34:16.102Z,2.20
2019-06-26T17:38:37.875Z,2.37
2019-06-26T17:43:11.376Z,1.97
2019-06-26T17:47:20.491Z,2.00
2019-06-26T17:51:41.734Z,2.50
2019-06-26T17:56:07.730Z,1.80
2019-06-26T18:00:32.281Z,2.10
2019-06-26T18:04:55.025Z,2.17
2019-06-26T18:09:14.767Z,2.33
2019-06-26T18:13:35.298Z,2.37
2019-06-26T18:17:55.595Z,2.03
2019-06-26T18:22:16.052Z,2.33
2019-06-26T18:26:36.571Z,2.50
2019-06-26T18:30:57.375Z,2.67
2019-06-26T18:35:17.879Z,2.83
2019-06-26T18:39:38.066Z,2.90
2019-06-26T18:43:58.249Z,2.73
2019-06-26T18:48:20.261Z,3.10
2019-06-26T18:52:43.287Z,2.60
2019-06-26T18:57:11.470Z,3.00
2019-06-26T19:01:34.240Z,2.73
2019-06-26T19:05:54.409Z,2.97
2019-06-26T19:10:15.209Z,3.20
2019-06-26T19:14:36.649Z,2.97
2019-06-26T19:18:58.081Z,3.07
2019-06-26T19:23:22.501Z,2.80
2019-06-26T19:27:44.627Z,3.17
2019-06-26T19:32:08.220Z,3.80
2019-06-26T19:36:28.908Z,3.17
2019-06-26T19:40:48.890Z,3.90
2019-06-26T19:45:11.111Z,3.53
2019-06-26T19:49:32.930Z,4.10
2019-06-26T19:53:53.705Z,4.30
2019-06-26T19:58:13.891Z,4.30
2019-06-26T20:02:34.117Z,4.70
2019-06-26T20:06:54.512Z,4.30
2019-06-26T20:11:15.042Z,4.20
2019-06-26T20:15:35.827Z,4.23
2019-06-26T20:19:56.521Z,4.60
2019-06-26T20:24:16.699Z,3.77
2019-06-26T20:28:37.188Z,4.20
2019-06-26T20:32:57.581Z,3.43
2019-06-26T20:37:18.696Z,3.70
2019-06-26T20:41:39.435Z,3.23
2019-06-26T20:45:59.381Z,3.03
2019-06-26T20:50:19.296Z,3.10
2019-06-26T20:54:40.057Z,3.17
2019-06-26T20:59:00.943Z,3.60
2019-06-26T21:03:21.494Z,4.07
2019-06-26T21:07:41.962Z,3.80
2019-06-26T21:12:02.773Z,3.93
2019-06-26T21:16:22.808Z,3.50
2019-06-26T21:20:43.375Z,3.70
2019-06-26T21:25:17.543Z,4.10
2019-06-26T21:29:25.973Z,3.43
2019-06-26T21:33:46.007Z,3.73
2019-06-26T21:38:06.714Z,3.80
2019-06-26T21:42:28.008Z,3.77
2019-06-26T21:46:48.806Z,4.30
2019-06-26T21:51:09.047Z,3.40
2019-06-26T21:55:34.367Z,3.67
2019-06-26T22:00:11.019Z,4.63
2019-06-26T22:04:49.200Z,4.30
2019-06-26T22:09:12.607Z,4.30
2019-06-26T22:13:34.367Z,4.60
2019-06-26T22:17:55.240Z,4.83
2019-06-26T22:22:15.824Z,4.73
2019-06-26T22:26:37.784Z,4.80
2019-06-26T22:30:58.464Z,5.20
2019-06-26T22:35:19.140Z,4.67
2019-06-26T22:39:40.917Z,5.20
2019-06-26T22:44:01.688Z,5.40
2019-06-26T22:48:21.684Z,4.73
2019-06-26T22:52:42.543Z,5.17
2019-06-26T22:57:03.561Z,5.27
2019-06-26T23:01:24.062Z,5.47
2019-06-26T23:05:44.773Z,5.30
2019-06-26T23:10:05.282Z,5.70
2019-06-26T23:14:25.981Z,5.50
2019-06-26T23:18:46.831Z,5.80
2019-06-26T23:23:08.040Z,5.40
2019-06-26T23:27:27.812Z,6.50
2019-06-26T23:31:48.333Z,6.10
2019-06-26T23:36:10.424Z,6.07
2019-06-26T23:40:30.736Z,6.00
2019-06-26T23:44:51.216Z,5.77
2019-06-26T23:49:11.681Z,6.83
2019-06-26T23:53:32.674Z,6.00
2019-06-26T23:57:59.012Z,6.10
